createdAt,value
2022-11-03T00:01:39.523Z,9.40
2022-11-03T00:04:10.298Z,8.20
2022-11-03T00:06:39.708Z,9.10
2022-11-03T00:09:10.185Z,9.00
2022-11-03T00:11:40.213Z,8.10
2022-11-03T00:14:10.353Z,8.40
2022-11-03T00:16:40.003Z,8.40
2022-11-03T00:19:10.040Z,7.90
2022-11-03T00:21:38.927Z,7.90
2022-11-03T00:24:08.753Z,8.50
2022-11-03T00:26:37.878Z,8.30
2022-11-03T00:29:10.564Z,7.80
2022-11-03T00:31:40.969Z,8.40
2022-11-03T00:34:10.597Z,8.70
2022-11-03T00:36:41.582Z,8.00
2022-11-03T00:39:10.867Z,8.50
2022-11-03T00:41:39.901Z,7.30
2022-11-03T00:44:10.147Z,7.80
2022-11-03T00:46:38.834Z,8.10
2022-11-03T00:49:07.595Z,7.60
2022-11-03T00:51:36.290Z,7.40
2022-11-03T00:54:06.826Z,7.90
2022-11-03T00:56:37.264Z,7.10
2022-11-03T00:59:07.700Z,7.20
2022-11-03T01:01:45.224Z,6.90
2022-11-03T01:04:33.473Z,6.90
2022-11-03T01:07:02.815Z,6.80
2022-11-03T01:09:35.303Z,6.80
2022-11-03T01:12:07.077Z,6.90
2022-11-03T01:14:38.367Z,7.10
2022-11-03T01:17:07.854Z,7.10
2022-11-03T01:19:36.683Z,6.90
2022-11-03T01:22:09.536Z,7.10
2022-11-03T01:24:40.749Z,7.00
2022-11-03T01:27:09.831Z,7.30
2022-11-03T01:29:38.496Z,7.40
2022-11-03T01:32:08.505Z,6.30
2022-11-03T01:34:37.308Z,6.10
2022-11-03T01:37:05.997Z,5.90
2022-11-03T01:39:35.143Z,5.70
2022-11-03T01:42:04.029Z,6.10
2022-11-03T01:44:35.209Z,5.50
2022-11-03T01:47:12.751Z,5.20
2022-11-03T01:49:47.001Z,5.60
2022-11-03T01:52:20.366Z,4.80
2022-11-03T01:54:52.039Z,6.00
2022-11-03T01:57:25.680Z,5.70
2022-11-03T01:59:58.107Z,6.10
2022-11-03T02:02:27.705Z,5.50
2022-11-03T02:05:00.349Z,5.60
2022-11-03T02:07:34.184Z,6.10
2022-11-03T02:10:03.532Z,5.60
2022-11-03T02:12:33.551Z,5.20
2022-11-03T02:15:06.564Z,5.40
2022-11-03T02:17:36.486Z,5.40
2022-11-03T02:20:08.324Z,6.20
2022-11-03T02:23:17.827Z,5.50
2022-11-03T02:25:48.468Z,5.60
2022-11-03T02:28:19.736Z,5.40
2022-11-03T02:30:54.698Z,5.60
2022-11-03T02:33:36.043Z,5.10
2022-11-03T02:36:12.075Z,6.00
2022-11-03T02:38:53.491Z,5.80
2022-11-03T02:41:24.462Z,5.40
2022-11-03T02:43:55.776Z,6.20
2022-11-03T02:46:26.193Z,5.90
2022-11-03T02:48:56.737Z,5.80
2022-11-03T02:51:25.414Z,6.10
2022-11-03T02:54:03.257Z,5.70
2022-11-03T02:56:37.132Z,6.10
2022-11-03T02:59:10.262Z,5.70
2022-11-03T03:01:47.424Z,5.80
2022-11-03T03:04:20.036Z,5.30
2022-11-03T03:06:53.855Z,5.80
2022-11-03T03:09:28.805Z,5.70
2022-11-03T03:12:01.280Z,6.10
2022-11-03T03:14:32.367Z,6.30
2022-11-03T03:17:05.440Z,5.60
2022-11-03T03:19:44.333Z,5.60
2022-11-03T03:22:21.605Z,5.60
2022-11-03T03:24:56.459Z,10.50
2022-11-03T03:27:28.135Z,6.40
2022-11-03T03:30:01.396Z,5.90
2022-11-03T03:32:35.832Z,5.40
2022-11-03T03:35:09.002Z,6.00
2022-11-03T03:37:41.243Z,6.40
2022-11-03T03:40:16.320Z,6.20
2022-11-03T03:42:47.489Z,5.80
2022-11-03T03:45:17.554Z,6.70
2022-11-03T03:47:47.015Z,6.80
2022-11-03T03:50:16.328Z,6.70
2022-11-03T03:52:44.986Z,6.60
2022-11-03T03:55:19.737Z,7.00
2022-11-03T04:00:17.262Z,6.90
2022-11-03T04:02:46.022Z,6.90
2022-11-03T04:05:14.882Z,7.50
2022-11-03T04:07:49.684Z,8.00
2022-11-03T04:13:05.494Z,7.00
2022-11-03T04:15:52.639Z,7.10
2022-11-03T04:18:41.166Z,7.80
2022-11-03T04:21:31.282Z,7.50
2022-11-03T04:24:00.479Z,8.30
2022-11-03T04:26:29.477Z,5.20
2022-11-03T04:29:00.312Z,7.90
2022-11-03T04:31:38.134Z,7.90
2022-11-03T04:34:15.789Z,7.30
2022-11-03T04:36:46.456Z,7.90
2022-11-03T04:39:19.156Z,8.60
2022-11-03T04:41:47.875Z,7.90
2022-11-03T04:44:17.195Z,8.70
2022-11-03T04:46:46.804Z,8.40
2022-11-03T04:49:22.229Z,8.70
2022-11-03T04:51:51.398Z,7.70
2022-11-03T04:54:23.510Z,7.20
2022-11-03T04:56:52.511Z,8.00
2022-11-03T04:59:21.192Z,7.10
2022-11-03T05:01:50.173Z,7.60
2022-11-03T05:04:19.359Z,8.80
2022-11-03T05:06:51.530Z,8.60
2022-11-03T05:09:25.185Z,11.70
2022-11-03T05:11:53.932Z,11.60
2022-11-03T05:14:24.864Z,10.50
2022-11-03T05:16:55.589Z,9.60
2022-11-03T05:19:27.416Z,8.80
2022-11-03T05:21:58.775Z,8.40
2022-11-03T05:24:28.230Z,9.50
2022-11-03T05:26:59.128Z,5.40
2022-11-03T05:29:33.313Z,5.60
2022-11-03T05:32:02.058Z,8.50
2022-11-03T05:34:37.723Z,9.20
2022-11-03T05:37:26.708Z,9.50
2022-11-03T05:39:57.907Z,11.20
2022-11-03T05:42:38.004Z,5.90
2022-11-03T05:45:16.050Z,6.60
2022-11-03T05:47:44.829Z,6.30
2022-11-03T05:50:19.390Z,7.80
2022-11-03T05:52:50.022Z,7.20
2022-11-03T05:55:27.777Z,7.30
2022-11-03T05:57:59.076Z,11.10
2022-11-03T06:00:30.617Z,10.50
2022-11-03T06:03:00.357Z,10.30
2022-11-03T06:05:31.235Z,6.30
2022-11-03T06:08:03.865Z,9.60
2022-11-03T06:10:37.625Z,10.60
2022-11-03T06:13:14.592Z,10.40
2022-11-03T06:15:46.195Z,10.10
2022-11-03T06:18:19.737Z,7.20
2022-11-03T06:20:52.354Z,7.30
2022-11-03T06:23:23.373Z,10.50
2022-11-03T06:25:54.909Z,10.50
2022-11-03T06:28:27.113Z,10.80
2022-11-03T06:30:56.830Z,10.10
2022-11-03T06:33:28.190Z,10.60
2022-11-03T06:36:02.594Z,9.90
2022-11-03T06:38:34.233Z,9.80
2022-11-03T06:41:03.091Z,9.60
2022-11-03T06:43:40.154Z,9.60
2022-11-03T06:46:19.678Z,9.80
2022-11-03T06:48:48.588Z,10.10
2022-11-03T06:51:21.250Z,9.60
2022-11-03T06:53:53.412Z,10.40
2022-11-03T06:56:25.296Z,9.70
2022-11-03T06:58:56.449Z,10.00
2022-11-03T07:01:30.085Z,10.40
2022-11-03T07:04:04.133Z,9.80
2022-11-03T07:06:36.872Z,10.20
2022-11-03T07:09:09.428Z,10.30
2022-11-03T07:11:44.037Z,10.90
2022-11-03T07:14:15.367Z,12.00
2022-11-03T07:16:47.733Z,11.90
2022-11-03T07:19:21.792Z,14.50
2022-11-03T07:21:53.232Z,15.60
2022-11-03T07:24:24.659Z,16.10
2022-11-03T07:26:59.301Z,15.20
2022-11-03T07:29:29.621Z,13.10
2022-11-03T07:32:00.623Z,13.40
2022-11-03T07:34:32.890Z,12.90
2022-11-03T07:37:02.722Z,13.10
2022-11-03T07:39:37.661Z,12.50
2022-11-03T07:42:14.031Z,11.60
2022-11-03T07:44:43.063Z,10.00
2022-11-03T07:47:14.389Z,9.00
2022-11-03T07:49:43.767Z,9.40
2022-11-03T07:52:14.988Z,7.90
2022-11-03T07:54:44.558Z,9.10
2022-11-03T07:57:21.566Z,8.80
2022-11-03T07:59:52.219Z,8.90
2022-11-03T08:02:31.154Z,8.10
2022-11-03T08:04:59.856Z,7.60
2022-11-03T08:07:29.833Z,7.70
2022-11-03T08:09:58.838Z,7.80
2022-11-03T08:12:27.684Z,7.30
2022-11-03T08:14:56.607Z,6.90
2022-11-03T08:17:25.863Z,7.40
2022-11-03T08:19:54.657Z,6.60
2022-11-03T08:22:25.514Z,6.40
2022-11-03T08:24:54.317Z,7.30
2022-11-03T08:27:23.042Z,7.40
2022-11-03T08:29:52.159Z,6.60
2022-11-03T08:32:20.809Z,6.50
2022-11-03T08:34:49.656Z,6.20
2022-11-03T08:37:18.350Z,6.70
2022-11-03T08:39:47.165Z,7.50
2022-11-03T08:42:16.111Z,6.60
2022-11-03T08:44:44.753Z,7.50
2022-11-03T08:47:13.522Z,6.70
2022-11-03T08:49:42.276Z,6.80
2022-11-03T08:52:11.038Z,7.20
2022-11-03T08:54:39.815Z,6.50
2022-11-03T08:57:08.647Z,6.40
2022-11-03T08:59:38.370Z,5.90
2022-11-03T09:02:08.123Z,6.50
2022-11-03T09:04:36.947Z,6.30
2022-11-03T09:07:05.834Z,6.00
2022-11-03T09:12:23.713Z,5.40
2022-11-03T09:14:52.704Z,4.30
2022-11-03T09:17:21.526Z,5.20
2022-11-03T09:19:50.222Z,5.10
2022-11-03T09:22:19.379Z,5.50
2022-11-03T09:24:48.133Z,4.70
2022-11-03T09:27:16.975Z,5.20
2022-11-03T09:30:11.222Z,4.50
2022-11-03T09:32:35.147Z,4.00
2022-11-03T09:35:04.402Z,4.10
2022-11-03T09:37:33.235Z,3.10
2022-11-03T09:40:02.122Z,3.70
2022-11-03T09:42:34.004Z,2.40
2022-11-03T09:45:04.279Z,2.40
2022-11-03T09:47:36.192Z,2.20
2022-11-03T09:50:08.258Z,2.50
2022-11-03T09:52:38.054Z,2.00
2022-11-03T09:55:15.869Z,2.20
2022-11-03T09:57:45.917Z,1.50
2022-11-03T10:00:25.380Z,1.90
2022-11-03T10:02:55.625Z,1.50
2022-11-03T10:05:26.832Z,1.60
2022-11-03T10:07:59.477Z,1.40
2022-11-03T10:10:29.879Z,1.50
2022-11-03T10:12:59.737Z,1.50
2022-11-03T10:15:28.946Z,1.80
2022-11-03T10:17:58.139Z,1.50
2022-11-03T10:20:29.259Z,1.60
2022-11-03T10:22:58.061Z,1.80
2022-11-03T10:25:37.464Z,1.80
2022-11-03T10:28:18.222Z,1.60
2022-11-03T10:33:42.260Z,1.70
2022-11-03T10:36:25.962Z,1.90
2022-11-03T10:38:55.178Z,2.20
2022-11-03T10:41:25.428Z,1.70
2022-11-03T10:44:07.797Z,1.80
2022-11-03T10:46:50.383Z,1.50
2022-11-03T10:49:21.312Z,1.80
2022-11-03T10:51:52.492Z,1.40
2022-11-03T10:54:23.442Z,1.70
2022-11-03T10:56:53.159Z,1.30
2022-11-03T10:59:24.567Z,1.70
2022-11-03T11:01:53.533Z,1.30
2022-11-03T11:04:22.815Z,1.70
2022-11-03T11:06:52.330Z,1.50
2022-11-03T11:09:25.085Z,1.70
2022-11-03T11:12:15.768Z,2.20
2022-11-03T11:14:55.332Z,1.80
2022-11-03T11:17:56.593Z,1.30
2022-11-03T11:20:34.233Z,2.10
2022-11-03T11:23:52.022Z,1.80
2022-11-03T11:26:40.897Z,1.50
2022-11-03T11:29:35.991Z,1.70
2022-11-03T11:32:47.240Z,1.40
2022-11-03T11:35:40.196Z,1.70
2022-11-03T11:38:44.566Z,1.40
2022-11-03T11:41:13.793Z,1.60
2022-11-03T11:43:42.614Z,1.40
2022-11-03T11:46:39.445Z,1.30
2022-11-03T11:49:18.712Z,1.40
2022-11-03T11:51:47.781Z,1.40
2022-11-03T11:54:20.562Z,1.30
2022-11-03T11:56:51.070Z,1.60
2022-11-03T11:59:25.849Z,1.30
2022-11-03T12:01:57.211Z,1.50
2022-11-03T12:04:30.788Z,1.20
2022-11-03T12:06:59.550Z,1.10
2022-11-03T12:09:28.907Z,1.20
2022-11-03T12:12:02.094Z,1.20
2022-11-03T12:14:38.398Z,1.80
2022-11-03T12:17:37.007Z,1.20
2022-11-03T12:20:35.994Z,1.20
2022-11-03T12:23:04.807Z,1.40
2022-11-03T12:25:39.844Z,1.30
2022-11-03T12:28:09.241Z,1.80
2022-11-03T12:30:40.010Z,2.10
2022-11-03T12:33:10.227Z,1.30
2022-11-03T12:35:39.452Z,1.40
2022-11-03T12:38:08.171Z,1.10
2022-11-03T12:40:37.042Z,1.40
2022-11-03T12:43:14.674Z,1.40
2022-11-03T12:45:46.399Z,1.40
2022-11-03T12:48:15.241Z,1.70
2022-11-03T12:50:44.102Z,1.60
2022-11-03T12:53:12.886Z,1.90
2022-11-03T12:55:44.591Z,1.80
2022-11-03T12:58:13.920Z,1.70
2022-11-03T13:00:46.325Z,2.00
2022-11-03T13:03:18.500Z,1.90
2022-11-03T13:05:48.159Z,1.70
2022-11-03T13:10:47.051Z,1.80
2022-11-03T13:13:15.803Z,2.70
2022-11-03T13:15:44.853Z,3.30
2022-11-03T13:18:14.406Z,2.90
2022-11-03T13:20:44.625Z,3.30
2022-11-03T13:23:16.179Z,3.80
2022-11-03T13:25:47.558Z,2.70
2022-11-03T13:28:16.331Z,3.40
2022-11-03T13:30:45.043Z,2.80
2022-11-03T13:33:13.884Z,9.60
2022-11-03T13:35:42.805Z,4.10
2022-11-03T13:38:11.830Z,2.90
2022-11-03T13:40:56.354Z,5.80
2022-11-03T13:43:26.397Z,2.40
2022-11-03T13:45:58.208Z,2.10
2022-11-03T13:51:17.283Z,2.10
2022-11-03T14:04:46.212Z,1.80
2022-11-03T14:07:15.117Z,1.80
2022-11-03T14:09:43.875Z,2.10
2022-11-03T14:12:30.933Z,2.60
2022-11-03T14:15:00.317Z,2.50
2022-11-03T14:17:29.017Z,2.40
2022-11-03T14:20:01.050Z,2.90
2022-11-03T14:22:33.134Z,2.30
2022-11-03T14:25:02.419Z,2.10
2022-11-03T14:27:31.335Z,2.60
2022-11-03T14:30:00.195Z,5.00
2022-11-03T14:32:29.025Z,4.50
2022-11-03T14:34:57.735Z,4.60
2022-11-03T14:37:27.080Z,9.40
2022-11-03T14:39:56.091Z,9.90
2022-11-03T14:42:25.058Z,9.40
2022-11-03T14:44:54.654Z,7.80
2022-11-03T14:47:25.198Z,9.10
2022-11-03T14:49:54.058Z,6.70
2022-11-03T14:52:22.867Z,5.90
2022-11-03T14:54:51.881Z,5.90
2022-11-03T14:57:22.463Z,7.80
2022-11-03T14:59:53.592Z,13.40
2022-11-03T15:02:23.034Z,8.40
2022-11-03T15:04:51.932Z,8.00
2022-11-03T15:07:20.965Z,9.60
2022-11-03T15:09:49.866Z,9.50
2022-11-03T15:12:18.644Z,10.80
2022-11-03T15:14:47.754Z,10.40
2022-11-03T15:17:16.821Z,59.60
2022-11-03T15:19:45.845Z,13.10
2022-11-03T15:22:14.856Z,10.20
2022-11-03T15:27:33.125Z,12.80
2022-11-03T15:30:01.917Z,14.90
2022-11-03T15:32:36.170Z,12.90
2022-11-03T15:35:06.884Z,7.10
2022-11-03T15:37:35.751Z,5.80
2022-11-03T15:40:06.216Z,5.50
2022-11-03T15:42:35.847Z,4.90
2022-11-03T15:45:05.886Z,6.10
2022-11-03T15:47:35.015Z,6.50
2022-11-03T15:50:03.853Z,8.20
2022-11-03T15:52:33.127Z,9.40
2022-11-03T15:55:02.414Z,12.50
2022-11-03T15:57:31.499Z,11.70
2022-11-03T16:00:00.352Z,11.70
2022-11-03T16:02:41.483Z,14.50
2022-11-03T16:05:11.500Z,17.10
2022-11-03T16:07:40.326Z,17.30
2022-11-03T16:10:10.163Z,15.20
2022-11-03T16:12:39.126Z,12.80
2022-11-03T16:15:10.516Z,12.40
2022-11-03T16:17:45.253Z,11.70
2022-11-03T16:20:14.545Z,12.10
2022-11-03T16:22:43.658Z,17.40
2022-11-03T16:25:16.596Z,23.20
2022-11-03T16:27:47.969Z,22.10
2022-11-03T16:30:16.962Z,20.10
2022-11-03T16:32:45.989Z,20.30
2022-11-03T16:35:15.218Z,18.90
2022-11-03T16:37:44.253Z,17.70
2022-11-03T16:40:19.039Z,15.80
2022-11-03T16:42:48.390Z,14.50
2022-11-03T16:45:19.151Z,12.40
2022-11-03T16:47:49.616Z,10.30
2022-11-03T16:50:19.837Z,9.00
2022-11-03T16:52:49.793Z,7.30
2022-11-03T16:55:19.954Z,6.00
2022-11-03T16:57:49.439Z,5.70
2022-11-03T17:00:20.083Z,6.00
2022-11-03T17:02:49.104Z,5.60
2022-11-03T17:05:20.993Z,6.50
2022-11-03T17:07:53.911Z,6.50
2022-11-03T17:10:23.791Z,6.10
2022-11-03T17:12:52.591Z,6.60
2022-11-03T17:15:21.642Z,6.60
2022-11-03T17:17:51.071Z,7.10
2022-11-03T17:20:19.981Z,7.70
2022-11-03T17:22:48.824Z,8.10
2022-11-03T17:25:18.690Z,8.00
2022-11-03T17:27:49.612Z,8.20
2022-11-03T17:30:20.759Z,9.40
2022-11-03T17:32:51.534Z,9.20
2022-11-03T17:35:21.977Z,11.30
2022-11-03T17:37:52.732Z,12.10
2022-11-03T17:40:24.677Z,13.00
2022-11-03T17:42:55.175Z,11.90
2022-11-03T17:45:26.971Z,12.00
2022-11-03T17:47:55.874Z,10.30
2022-11-03T17:50:26.067Z,9.90
2022-11-03T17:52:56.115Z,11.60
2022-11-03T17:55:29.003Z,11.20
2022-11-03T17:58:04.701Z,11.20
2022-11-03T18:00:34.536Z,12.50
2022-11-03T18:03:08.049Z,13.00
2022-11-03T18:05:38.379Z,11.30
2022-11-03T18:08:11.863Z,11.70
2022-11-03T18:10:44.514Z,11.20
2022-11-03T18:13:19.434Z,11.00
2022-11-03T18:15:51.492Z,12.20
2022-11-03T18:18:25.421Z,14.10
2022-11-03T18:20:55.983Z,12.20
2022-11-03T18:23:28.239Z,11.60
2022-11-03T18:26:00.613Z,11.40
2022-11-03T18:28:31.774Z,10.60
2022-11-03T18:31:05.282Z,10.30
2022-11-03T18:33:36.596Z,10.70
2022-11-03T18:36:07.958Z,9.90
2022-11-03T18:38:40.513Z,10.70
2022-11-03T18:41:34.263Z,10.10
2022-11-03T18:44:07.887Z,10.10
2022-11-03T18:46:38.392Z,10.10
2022-11-03T18:49:08.967Z,8.80
2022-11-03T18:51:41.499Z,9.80
2022-11-03T18:54:15.136Z,8.70
2022-11-03T18:56:44.446Z,9.50
2022-11-03T18:59:22.088Z,9.20
2022-11-03T19:01:51.543Z,8.10
2022-11-03T19:04:21.081Z,9.00
2022-11-03T19:06:53.399Z,9.10
2022-11-03T19:09:25.946Z,9.40
2022-11-03T19:11:58.268Z,9.00
2022-11-03T19:14:32.202Z,9.60
2022-11-03T19:19:54.923Z,9.00
2022-11-03T19:22:25.200Z,9.60
2022-11-03T19:24:54.309Z,9.30
2022-11-03T19:27:30.156Z,9.40
2022-11-03T19:30:00.765Z,10.60
2022-11-03T19:32:36.322Z,9.40
2022-11-03T19:35:08.067Z,9.90
2022-11-03T19:37:38.114Z,8.90
2022-11-03T19:40:13.604Z,9.40
2022-11-03T19:42:44.067Z,8.80
2022-11-03T19:45:24.558Z,9.10
2022-11-03T19:50:53.410Z,8.70
2022-11-03T19:53:26.919Z,9.50
2022-11-03T19:55:58.161Z,8.00
2022-11-03T19:58:30.463Z,8.70
2022-11-03T20:01:04.266Z,9.40
2022-11-03T20:03:39.864Z,10.10
2022-11-03T20:06:15.380Z,8.60
2022-11-03T20:08:48.821Z,9.00
2022-11-03T20:11:19.672Z,8.40
2022-11-03T20:13:53.113Z,8.90
2022-11-03T20:16:23.021Z,7.90
2022-11-03T20:18:53.867Z,8.10
2022-11-03T20:21:23.683Z,8.70
2022-11-03T20:23:53.368Z,8.60
2022-11-03T20:26:25.392Z,7.70
2022-11-03T20:28:56.994Z,7.90
2022-11-03T20:31:26.658Z,8.80
2022-11-03T20:33:56.333Z,8.70
2022-11-03T20:36:26.914Z,8.90
2022-11-03T20:38:59.606Z,8.70
2022-11-03T20:41:31.826Z,8.40
2022-11-03T20:44:01.304Z,8.90
2022-11-03T20:46:33.758Z,7.90
2022-11-03T20:49:03.435Z,7.80
2022-11-03T20:51:35.551Z,7.70
2022-11-03T20:54:13.153Z,8.40
2022-11-03T20:56:48.029Z,8.60
2022-11-03T20:59:18.593Z,8.80
2022-11-03T21:01:49.387Z,9.20
2022-11-03T21:04:20.887Z,9.10
2022-11-03T21:06:50.636Z,19.90
2022-11-03T21:09:21.052Z,9.90
2022-11-03T21:11:53.482Z,9.00
2022-11-03T21:14:28.260Z,9.10
2022-11-03T21:20:01.938Z,12.40
2022-11-03T21:22:52.015Z,10.20
2022-11-03T21:25:23.856Z,10.50
2022-11-03T21:27:54.478Z,9.80
2022-11-03T21:30:24.305Z,9.40
2022-11-03T21:32:53.344Z,9.30
2022-11-03T21:35:23.144Z,8.90
2022-11-03T21:37:52.033Z,9.00
2022-11-03T21:40:21.229Z,9.40
2022-11-03T21:43:08.862Z,8.30
2022-11-03T21:45:38.303Z,8.70
2022-11-03T21:48:27.303Z,8.10
2022-11-03T21:51:02.011Z,8.10
2022-11-03T21:53:32.989Z,8.20
2022-11-03T21:56:01.933Z,8.00
2022-11-03T21:58:32.684Z,7.90
2022-11-03T22:01:04.660Z,8.50
2022-11-03T22:03:35.681Z,9.10
2022-11-03T22:06:08.579Z,9.60
2022-11-03T22:08:38.613Z,9.60
2022-11-03T22:11:23.407Z,9.40
2022-11-03T22:13:55.604Z,9.70
2022-11-03T22:16:37.419Z,10.90
2022-11-03T22:19:27.284Z,10.40
2022-11-03T22:22:14.550Z,9.90
2022-11-03T22:25:01.170Z,9.20
2022-11-03T22:27:32.329Z,9.80
2022-11-03T22:30:20.637Z,10.10
2022-11-03T22:32:53.146Z,10.10
2022-11-03T22:35:44.015Z,9.20
2022-11-03T22:38:14.652Z,9.20
2022-11-03T22:41:04.465Z,8.00
2022-11-03T22:43:51.786Z,8.40
2022-11-03T22:46:20.517Z,7.90
2022-11-03T22:48:49.328Z,8.40
2022-11-03T22:51:19.027Z,8.20
2022-11-03T22:54:05.645Z,8.40
2022-11-03T22:56:34.431Z,7.30
2022-11-03T22:59:03.315Z,7.90
2022-11-03T23:01:32.299Z,7.80
2022-11-03T23:04:01.263Z,8.10
2022-11-03T23:06:34.870Z,7.90
2022-11-03T23:09:04.173Z,7.10
2022-11-03T23:11:33.534Z,7.30
2022-11-03T23:14:04.674Z,7.80
2022-11-03T23:16:34.815Z,6.90
2022-11-03T23:19:21.743Z,7.30
2022-11-03T23:21:52.662Z,7.40
2022-11-03T23:24:44.005Z,6.40
2022-11-03T23:27:14.276Z,7.50
2022-11-03T23:29:43.072Z,7.60
2022-11-03T23:32:12.014Z,7.70
2022-11-03T23:34:41.681Z,7.30
2022-11-03T23:37:10.349Z,8.50
2022-11-03T23:39:39.061Z,7.60
2022-11-03T23:42:08.332Z,7.70
2022-11-03T23:44:51.394Z,8.40
2022-11-03T23:47:49.787Z,8.40
2022-11-03T23:50:18.771Z,8.10
2022-11-03T23:52:47.559Z,8.10
2022-11-03T23:55:16.519Z,8.00
2022-11-03T23:58:03.162Z,8.60
